sensor_id;sensor_type;location;lat;lon;timestamp;P1;durP1;ratioP1;P2;durP2;ratioP2
3016;SDS011;1518;52.408;13.060;2023-02-07T00:01:47;8.70;;;7.88;;
3016;SDS011;1518;52.408;13.060;2023-02-07T00:04:36;8.68;;;7.72;;
3016;SDS011;1518;52.408;13.060;2023-02-07T00:07:24;8.95;;;7.95;;
3016;SDS011;1518;52.408;13.060;2023-02-07T00:10:12;9.00;;;8.05;;
3016;SDS011;1518;52.408;13.060;2023-02-07T00:13:01;8.80;;;7.90;;
3016;SDS011;1518;52.408;13.060;2023-02-07T00:15:51;8.93;;;8.02;;
3016;SDS011;1518;52.408;13.060;2023-02-07T00:18:39;10.30;;;7.70;;
3016;SDS011;1518;52.408;13.060;2023-02-07T00:21:28;9.05;;;7.97;;
3016;SDS011;1518;52.408;13.060;2023-02-07T00:24:16;10.38;;;8.50;;
3016;SDS011;1518;52.408;13.060;2023-02-07T00:27:04;9.30;;;7.80;;
3016;SDS011;1518;52.408;13.060;2023-02-07T00:29:54;8.88;;;7.97;;
3016;SDS011;1518;52.408;13.060;2023-02-07T00:32:42;9.02;;;8.13;;
3016;SDS011;1518;52.408;13.060;2023-02-07T00:35:30;8.85;;;7.55;;
3016;SDS011;1518;52.408;13.060;2023-02-07T00:38:18;10.35;;;8.52;;
3016;SDS011;1518;52.408;13.060;2023-02-07T00:41:06;9.40;;;8.32;;
3016;SDS011;1518;52.408;13.060;2023-02-07T00:43:55;9.45;;;8.05;;
3016;SDS011;1518;52.408;13.060;2023-02-07T00:46:44;10.82;;;8.10;;
3016;SDS011;1518;52.408;13.060;2023-02-07T00:49:32;9.02;;;7.68;;
3016;SDS011;1518;52.408;13.060;2023-02-07T00:52:20;9.75;;;8.05;;
3016;SDS011;1518;52.408;13.060;2023-02-07T00:55:08;9.05;;;7.65;;
3016;SDS011;1518;52.408;13.060;2023-02-07T00:57:56;9.38;;;7.80;;
3016;SDS011;1518;52.408;13.060;2023-02-07T01:00:44;9.65;;;8.55;;
3016;SDS011;1518;52.408;13.060;2023-02-07T01:03:34;10.25;;;8.23;;
3016;SDS011;1518;52.408;13.060;2023-02-07T01:06:22;8.93;;;8.02;;
3016;SDS011;1518;52.408;13.060;2023-02-07T01:09:10;9.90;;;8.30;;
3016;SDS011;1518;52.408;13.060;2023-02-07T01:11:59;12.10;;;8.88;;
3016;SDS011;1518;52.408;13.060;2023-02-07T01:14:47;13.77;;;9.30;;
3016;SDS011;1518;52.408;13.060;2023-02-07T01:17:35;9.18;;;8.25;;
3016;SDS011;1518;52.408;13.060;2023-02-07T01:20:25;13.85;;;9.15;;
3016;SDS011;1518;52.408;13.060;2023-02-07T01:23:15;10.07;;;8.40;;
3016;SDS011;1518;52.408;13.060;2023-02-07T01:26:05;11.90;;;9.73;;
3016;SDS011;1518;52.408;13.060;2023-02-07T01:28:53;11.77;;;8.90;;
3016;SDS011;1518;52.408;13.060;2023-02-07T01:31:42;10.70;;;9.07;;
3016;SDS011;1518;52.408;13.060;2023-02-07T01:34:30;13.82;;;9.13;;
3016;SDS011;1518;52.408;13.060;2023-02-07T01:37:20;10.98;;;9.10;;
3016;SDS011;1518;52.408;13.060;2023-02-07T01:40:09;11.55;;;9.23;;
3016;SDS011;1518;52.408;13.060;2023-02-07T01:42:58;12.52;;;9.25;;
3016;SDS011;1518;52.408;13.060;2023-02-07T01:45:46;12.23;;;8.85;;
3016;SDS011;1518;52.408;13.060;2023-02-07T01:48:34;11.32;;;9.80;;
3016;SDS011;1518;52.408;13.060;2023-02-07T01:51:23;15.80;;;9.32;;
3016;SDS011;1518;52.408;13.060;2023-02-07T01:54:14;12.02;;;9.45;;
3016;SDS011;1518;52.408;13.060;2023-02-07T01:57:04;11.23;;;9.15;;
3016;SDS011;1518;52.408;13.060;2023-02-07T01:59:55;11.63;;;8.80;;
3016;SDS011;1518;52.408;13.060;2023-02-07T02:02:44;14.98;;;9.73;;
3016;SDS011;1518;52.408;13.060;2023-02-07T02:05:32;11.45;;;9.23;;
3016;SDS011;1518;52.408;13.060;2023-02-07T02:08:22;13.48;;;9.55;;
3016;SDS011;1518;52.408;13.060;2023-02-07T02:11:23;11.63;;;8.98;;
3016;SDS011;1518;52.408;13.060;2023-02-07T02:14:33;10.38;;;8.38;;
3016;SDS011;1518;52.408;13.060;2023-02-07T02:17:35;10.68;;;8.80;;
3016;SDS011;1518;52.408;13.060;2023-02-07T02:20:36;14.50;;;9.23;;
3016;SDS011;1518;52.408;13.060;2023-02-07T02:23:55;11.32;;;9.25;;
3016;SDS011;1518;52.408;13.060;2023-02-07T02:27:17;14.98;;;9.77;;
3016;SDS011;1518;52.408;13.060;2023-02-07T02:30:25;13.30;;;9.40;;
3016;SDS011;1518;52.408;13.060;2023-02-07T02:33:38;13.70;;;9.98;;
3016;SDS011;1518;52.408;13.060;2023-02-07T02:36:32;9.50;;;8.32;;
3016;SDS011;1518;52.408;13.060;2023-02-07T02:39:29;11.40;;;8.98;;
3016;SDS011;1518;52.408;13.060;2023-02-07T02:42:23;12.18;;;8.63;;
3016;SDS011;1518;52.408;13.060;2023-02-07T02:45:14;10.60;;;8.85;;
3016;SDS011;1518;52.408;13.060;2023-02-07T02:48:05;10.13;;;8.48;;
3016;SDS011;1518;52.408;13.060;2023-02-07T02:50:57;10.13;;;8.68;;
3016;SDS011;1518;52.408;13.060;2023-02-07T02:53:52;12.13;;;8.88;;
3016;SDS011;1518;52.408;13.060;2023-02-07T02:56:46;11.90;;;9.10;;
3016;SDS011;1518;52.408;13.060;2023-02-07T02:59:49;11.07;;;7.97;;
3016;SDS011;1518;52.408;13.060;2023-02-07T03:02:50;11.15;;;8.77;;
3016;SDS011;1518;52.408;13.060;2023-02-07T03:05:51;11.90;;;9.55;;
3016;SDS011;1518;52.408;13.060;2023-02-07T03:08:49;11.85;;;8.52;;
3016;SDS011;1518;52.408;13.060;2023-02-07T03:11:47;9.23;;;8.25;;
3016;SDS011;1518;52.408;13.060;2023-02-07T03:14:44;11.18;;;8.38;;
3016;SDS011;1518;52.408;13.060;2023-02-07T03:17:44;10.20;;;7.80;;
3016;SDS011;1518;52.408;13.060;2023-02-07T03:20:38;11.43;;;8.73;;
3016;SDS011;1518;52.408;13.060;2023-02-07T03:23:30;8.80;;;7.80;;
3016;SDS011;1518;52.408;13.060;2023-02-07T03:26:22;11.65;;;8.55;;
3016;SDS011;1518;52.408;13.060;2023-02-07T03:29:11;13.80;;;8.75;;
3016;SDS011;1518;52.408;13.060;2023-02-07T03:32:03;10.60;;;8.52;;
3016;SDS011;1518;52.408;13.060;2023-02-07T03:34:53;11.75;;;9.15;;
3016;SDS011;1518;52.408;13.060;2023-02-07T03:37:45;11.88;;;9.43;;
3016;SDS011;1518;52.408;13.060;2023-02-07T03:40:36;10.70;;;8.52;;
3016;SDS011;1518;52.408;13.060;2023-02-07T03:43:31;12.35;;;9.20;;
3016;SDS011;1518;52.408;13.060;2023-02-07T03:46:21;12.95;;;9.38;;
3016;SDS011;1518;52.408;13.060;2023-02-07T03:49:09;11.20;;;8.70;;
3016;SDS011;1518;52.408;13.060;2023-02-07T03:52:00;14.10;;;8.85;;
3016;SDS011;1518;52.408;13.060;2023-02-07T03:54:48;13.15;;;10.13;;
3016;SDS011;1518;52.408;13.060;2023-02-07T03:57:36;10.60;;;8.65;;
3016;SDS011;1518;52.408;13.060;2023-02-07T04:00:26;9.38;;;8.38;;
3016;SDS011;1518;52.408;13.060;2023-02-07T04:03:14;13.18;;;9.57;;
3016;SDS011;1518;52.408;13.060;2023-02-07T04:06:02;12.30;;;9.43;;
3016;SDS011;1518;52.408;13.060;2023-02-07T04:08:51;11.93;;;9.45;;
3016;SDS011;1518;52.408;13.060;2023-02-07T04:11:39;11.93;;;8.07;;
3016;SDS011;1518;52.408;13.060;2023-02-07T04:14:27;9.38;;;8.30;;
3016;SDS011;1518;52.408;13.060;2023-02-07T04:17:16;10.63;;;7.80;;
3016;SDS011;1518;52.408;13.060;2023-02-07T04:20:05;10.82;;;8.82;;
3016;SDS011;1518;52.408;13.060;2023-02-07T04:22:53;12.02;;;8.65;;
3016;SDS011;1518;52.408;13.060;2023-02-07T04:25:41;11.52;;;7.95;;
3016;SDS011;1518;52.408;13.060;2023-02-07T04:28:30;9.23;;;7.30;;
3016;SDS011;1518;52.408;13.060;2023-02-07T04:31:18;10.40;;;8.40;;
3016;SDS011;1518;52.408;13.060;2023-02-07T04:34:07;10.60;;;8.10;;
3016;SDS011;1518;52.408;13.060;2023-02-07T04:36:57;11.43;;;8.65;;
3016;SDS011;1518;52.408;13.060;2023-02-07T04:39:45;9.65;;;7.60;;
3016;SDS011;1518;52.408;13.060;2023-02-07T04:42:33;11.93;;;8.38;;
3016;SDS011;1518;52.408;13.060;2023-02-07T04:45:21;9.40;;;7.45;;
3016;SDS011;1518;52.408;13.060;2023-02-07T04:48:09;9.60;;;7.60;;
3016;SDS011;1518;52.408;13.060;2023-02-07T04:50:58;8.43;;;7.55;;
3016;SDS011;1518;52.408;13.060;2023-02-07T04:53:46;9.30;;;7.53;;
3016;SDS011;1518;52.408;13.060;2023-02-07T04:56:34;10.65;;;7.93;;
3016;SDS011;1518;52.408;13.060;2023-02-07T04:59:22;8.32;;;7.05;;
3016;SDS011;1518;52.408;13.060;2023-02-07T05:02:10;9.45;;;7.78;;
3016;SDS011;1518;52.408;13.060;2023-02-07T05:04:58;8.80;;;7.90;;
3016;SDS011;1518;52.408;13.060;2023-02-07T05:07:48;10.07;;;7.05;;
3016;SDS011;1518;52.408;13.060;2023-02-07T05:10:36;9.27;;;7.50;;
3016;SDS011;1518;52.408;13.060;2023-02-07T05:13:25;8.10;;;7.30;;
3016;SDS011;1518;52.408;13.060;2023-02-07T05:16:13;7.78;;;6.88;;
3016;SDS011;1518;52.408;13.060;2023-02-07T05:19:01;11.10;;;7.93;;
3016;SDS011;1518;52.408;13.060;2023-02-07T05:21:49;8.90;;;6.95;;
3016;SDS011;1518;52.408;13.060;2023-02-07T05:24:39;8.75;;;7.03;;
3016;SDS011;1518;52.408;13.060;2023-02-07T05:27:27;10.18;;;8.00;;
3016;SDS011;1518;52.408;13.060;2023-02-07T05:30:15;9.05;;;7.25;;
3016;SDS011;1518;52.408;13.060;2023-02-07T05:33:03;9.93;;;8.00;;
3016;SDS011;1518;52.408;13.060;2023-02-07T05:35:50;9.05;;;7.53;;
3016;SDS011;1518;52.408;13.060;2023-02-07T05:38:38;11.20;;;7.57;;
3016;SDS011;1518;52.408;13.060;2023-02-07T05:41:28;8.43;;;7.25;;
3016;SDS011;1518;52.408;13.060;2023-02-07T05:44:16;9.63;;;7.70;;
3016;SDS011;1518;52.408;13.060;2023-02-07T05:47:04;9.23;;;7.43;;
3016;SDS011;1518;52.408;13.060;2023-02-07T05:49:52;10.00;;;7.78;;
3016;SDS011;1518;52.408;13.060;2023-02-07T05:52:40;9.85;;;7.55;;
3016;SDS011;1518;52.408;13.060;2023-02-07T05:55:28;10.00;;;7.32;;
3016;SDS011;1518;52.408;13.060;2023-02-07T05:58:18;10.25;;;7.85;;
3016;SDS011;1518;52.408;13.060;2023-02-07T06:01:06;12.30;;;8.60;;
3016;SDS011;1518;52.408;13.060;2023-02-07T06:03:54;11.38;;;7.90;;
3016;SDS011;1518;52.408;13.060;2023-02-07T06:06:42;9.48;;;7.35;;
3016;SDS011;1518;52.408;13.060;2023-02-07T06:09:30;9.25;;;6.95;;
3016;SDS011;1518;52.408;13.060;2023-02-07T06:12:18;10.30;;;7.60;;
3016;SDS011;1518;52.408;13.060;2023-02-07T06:15:08;9.65;;;7.72;;
3016;SDS011;1518;52.408;13.060;2023-02-07T06:17:56;11.23;;;7.40;;
3016;SDS011;1518;52.408;13.060;2023-02-07T06:20:44;11.93;;;8.32;;
3016;SDS011;1518;52.408;13.060;2023-02-07T06:23:32;9.98;;;8.18;;
3016;SDS011;1518;52.408;13.060;2023-02-07T06:26:20;10.48;;;7.13;;
3016;SDS011;1518;52.408;13.060;2023-02-07T06:29:08;10.70;;;7.85;;
3016;SDS011;1518;52.408;13.060;2023-02-07T06:31:58;10.10;;;7.55;;
3016;SDS011;1518;52.408;13.060;2023-02-07T06:34:46;9.32;;;7.20;;
3016;SDS011;1518;52.408;13.060;2023-02-07T06:37:34;8.52;;;6.90;;
3016;SDS011;1518;52.408;13.060;2023-02-07T06:40:22;10.65;;;7.47;;
3016;SDS011;1518;52.408;13.060;2023-02-07T06:43:10;12.75;;;8.77;;
3016;SDS011;1518;52.408;13.060;2023-02-07T06:45:58;10.35;;;8.55;;
3016;SDS011;1518;52.408;13.060;2023-02-07T06:48:48;11.55;;;8.00;;
3016;SDS011;1518;52.408;13.060;2023-02-07T06:51:36;11.05;;;8.25;;
3016;SDS011;1518;52.408;13.060;2023-02-07T06:54:24;70.55;;;14.65;;
3016;SDS011;1518;52.408;13.060;2023-02-07T06:57:12;23.23;;;9.70;;
3016;SDS011;1518;52.408;13.060;2023-02-07T07:00:00;23.55;;;9.50;;
3016;SDS011;1518;52.408;13.060;2023-02-07T07:02:49;20.17;;;8.73;;
3016;SDS011;1518;52.408;13.060;2023-02-07T07:05:39;15.70;;;8.32;;
3016;SDS011;1518;52.408;13.060;2023-02-07T07:08:28;14.60;;;8.18;;
3016;SDS011;1518;52.408;13.060;2023-02-07T07:11:16;13.40;;;8.15;;
3016;SDS011;1518;52.408;13.060;2023-02-07T07:14:04;12.38;;;8.50;;
3016;SDS011;1518;52.408;13.060;2023-02-07T07:16:52;10.98;;;8.82;;
3016;SDS011;1518;52.408;13.060;2023-02-07T07:19:42;14.70;;;7.68;;
3016;SDS011;1518;52.408;13.060;2023-02-07T07:22:31;85.65;;;17.55;;
3016;SDS011;1518;52.408;13.060;2023-02-07T07:25:20;439.92;;;62.05;;
3016;SDS011;1518;52.408;13.060;2023-02-07T07:28:08;352.13;;;46.28;;
3016;SDS011;1518;52.408;13.060;2023-02-07T07:31:00;443.00;;;65.65;;
3016;SDS011;1518;52.408;13.060;2023-02-07T07:33:49;539.30;;;85.07;;
3016;SDS011;1518;52.408;13.060;2023-02-07T07:36:39;502.63;;;74.20;;
3016;SDS011;1518;52.408;13.060;2023-02-07T07:39:28;371.52;;;53.20;;
3016;SDS011;1518;52.408;13.060;2023-02-07T07:42:16;314.27;;;43.67;;
3016;SDS011;1518;52.408;13.060;2023-02-07T07:45:05;398.77;;;54.25;;
3016;SDS011;1518;52.408;13.060;2023-02-07T07:47:53;359.40;;;51.92;;
3016;SDS011;1518;52.408;13.060;2023-02-07T07:50:42;321.70;;;46.20;;
3016;SDS011;1518;52.408;13.060;2023-02-07T07:53:30;214.15;;;33.00;;
3016;SDS011;1518;52.408;13.060;2023-02-07T07:56:19;147.52;;;29.52;;
3016;SDS011;1518;52.408;13.060;2023-02-07T07:59:07;171.88;;;31.42;;
3016;SDS011;1518;52.408;13.060;2023-02-07T08:02:09;1022.70;;;219.63;;
3016;SDS011;1518;52.408;13.060;2023-02-07T08:04:59;346.48;;;56.53;;
3016;SDS011;1518;52.408;13.060;2023-02-07T08:07:47;226.73;;;40.90;;
3016;SDS011;1518;52.408;13.060;2023-02-07T08:10:36;143.75;;;30.02;;
3016;SDS011;1518;52.408;13.060;2023-02-07T08:13:26;248.57;;;42.22;;
3016;SDS011;1518;52.408;13.060;2023-02-07T08:16:18;1120.25;;;208.40;;
3016;SDS011;1518;52.408;13.060;2023-02-07T08:19:06;1195.75;;;233.68;;
3016;SDS011;1518;52.408;13.060;2023-02-07T08:21:54;645.50;;;109.78;;
3016;SDS011;1518;52.408;13.060;2023-02-07T08:24:42;372.40;;;62.55;;
3016;SDS011;1518;52.408;13.060;2023-02-07T08:27:30;257.95;;;41.67;;
3016;SDS011;1518;52.408;13.060;2023-02-07T08:30:20;220.40;;;38.88;;
3016;SDS011;1518;52.408;13.060;2023-02-07T08:33:08;547.95;;;87.13;;
3016;SDS011;1518;52.408;13.060;2023-02-07T08:35:56;1300.20;;;257.30;;
3016;SDS011;1518;52.408;13.060;2023-02-07T08:38:46;871.80;;;158.05;;
3016;SDS011;1518;52.408;13.060;2023-02-07T08:41:16;546.63;;;85.38;;
3016;SDS011;1518;52.408;13.060;2023-02-07T08:43:44;771.45;;;127.47;;
3016;SDS011;1518;52.408;13.060;2023-02-07T08:46:13;678.90;;;99.75;;
3016;SDS011;1518;52.408;13.060;2023-02-07T08:48:41;340.30;;;49.05;;
3016;SDS011;1518;52.408;13.060;2023-02-07T08:51:10;291.95;;;46.00;;
3016;SDS011;1518;52.408;13.060;2023-02-07T08:53:38;167.00;;;31.00;;
3016;SDS011;1518;52.408;13.060;2023-02-07T08:56:06;166.20;;;32.08;;
3016;SDS011;1518;52.408;13.060;2023-02-07T08:58:35;154.52;;;27.40;;
3016;SDS011;1518;52.408;13.060;2023-02-07T09:01:04;122.18;;;25.33;;
3016;SDS011;1518;52.408;13.060;2023-02-07T09:03:38;97.93;;;18.92;;
3016;SDS011;1518;52.408;13.060;2023-02-07T09:06:07;92.07;;;18.92;;
3016;SDS011;1518;52.408;13.060;2023-02-07T09:08:38;80.13;;;19.65;;
3016;SDS011;1518;52.408;13.060;2023-02-07T09:11:06;83.15;;;21.85;;
3016;SDS011;1518;52.408;13.060;2023-02-07T09:13:35;69.07;;;19.83;;
3016;SDS011;1518;52.408;13.060;2023-02-07T09:16:03;109.82;;;21.70;;
3016;SDS011;1518;52.408;13.060;2023-02-07T09:18:32;61.08;;;18.50;;
3016;SDS011;1518;52.408;13.060;2023-02-07T09:21:02;71.97;;;17.45;;
3016;SDS011;1518;52.408;13.060;2023-02-07T09:23:30;67.20;;;18.00;;
3016;SDS011;1518;52.408;13.060;2023-02-07T09:26:04;65.43;;;18.35;;
3016;SDS011;1518;52.408;13.060;2023-02-07T09:28:34;50.45;;;16.75;;
3016;SDS011;1518;52.408;13.060;2023-02-07T09:31:06;66.03;;;17.50;;
3016;SDS011;1518;52.408;13.060;2023-02-07T09:33:39;54.13;;;15.85;;
3016;SDS011;1518;52.408;13.060;2023-02-07T09:36:16;66.43;;;16.85;;
3016;SDS011;1518;52.408;13.060;2023-02-07T09:38:48;57.08;;;15.85;;
3016;SDS011;1518;52.408;13.060;2023-02-07T09:41:19;60.40;;;18.05;;
3016;SDS011;1518;52.408;13.060;2023-02-07T09:43:58;56.55;;;16.58;;
3016;SDS011;1518;52.408;13.060;2023-02-07T09:46:33;52.75;;;14.75;;
3016;SDS011;1518;52.408;13.060;2023-02-07T09:49:06;66.45;;;16.50;;
3016;SDS011;1518;52.408;13.060;2023-02-07T09:51:40;42.40;;;15.55;;
3016;SDS011;1518;52.408;13.060;2023-02-07T09:54:17;51.70;;;16.52;;
3016;SDS011;1518;52.408;13.060;2023-02-07T09:56:50;55.97;;;16.38;;
3016;SDS011;1518;52.408;13.060;2023-02-07T09:59:22;182.70;;;32.95;;
3016;SDS011;1518;52.408;13.060;2023-02-07T10:01:55;213.35;;;37.63;;
3016;SDS011;1518;52.408;13.060;2023-02-07T10:04:28;405.55;;;61.60;;
3016;SDS011;1518;52.408;13.060;2023-02-07T10:07:03;758.20;;;131.73;;
3016;SDS011;1518;52.408;13.060;2023-02-07T10:09:35;531.38;;;93.57;;
3016;SDS011;1518;52.408;13.060;2023-02-07T10:12:09;457.40;;;77.65;;
3016;SDS011;1518;52.408;13.060;2023-02-07T10:15:00;361.02;;;59.92;;
3016;SDS011;1518;52.408;13.060;2023-02-07T10:17:43;281.65;;;46.35;;
3016;SDS011;1518;52.408;13.060;2023-02-07T10:20:26;197.32;;;38.72;;
3016;SDS011;1518;52.408;13.060;2023-02-07T10:23:11;159.10;;;26.88;;
3016;SDS011;1518;52.408;13.060;2023-02-07T10:25:54;120.72;;;24.48;;
3016;SDS011;1518;52.408;13.060;2023-02-07T10:28:34;108.38;;;23.77;;
3016;SDS011;1518;52.408;13.060;2023-02-07T10:31:21;83.80;;;21.58;;
3016;SDS011;1518;52.408;13.060;2023-02-07T10:33:54;85.07;;;23.33;;
3016;SDS011;1518;52.408;13.060;2023-02-07T10:36:26;192.48;;;32.78;;
3016;SDS011;1518;52.408;13.060;2023-02-07T10:39:02;676.80;;;108.60;;
3016;SDS011;1518;52.408;13.060;2023-02-07T10:41:36;591.72;;;90.40;;
3016;SDS011;1518;52.408;13.060;2023-02-07T10:44:05;571.17;;;89.63;;
3016;SDS011;1518;52.408;13.060;2023-02-07T10:46:37;472.58;;;65.03;;
3016;SDS011;1518;52.408;13.060;2023-02-07T10:49:12;398.45;;;59.45;;
3016;SDS011;1518;52.408;13.060;2023-02-07T10:51:51;302.40;;;45.13;;
3016;SDS011;1518;52.408;13.060;2023-02-07T10:54:23;230.70;;;38.00;;
3016;SDS011;1518;52.408;13.060;2023-02-07T10:56:53;175.43;;;29.92;;
3016;SDS011;1518;52.408;13.060;2023-02-07T10:59:35;124.40;;;25.92;;
3016;SDS011;1518;52.408;13.060;2023-02-07T11:05:15;192.13;;;34.00;;
3016;SDS011;1518;52.408;13.060;2023-02-07T11:08:01;320.38;;;44.30;;
3016;SDS011;1518;52.408;13.060;2023-02-07T11:10:34;345.70;;;55.00;;
3016;SDS011;1518;52.408;13.060;2023-02-07T11:13:04;656.10;;;109.40;;
3016;SDS011;1518;52.408;13.060;2023-02-07T11:15:44;678.35;;;113.55;;
3016;SDS011;1518;52.408;13.060;2023-02-07T11:18:32;558.97;;;94.13;;
3016;SDS011;1518;52.408;13.060;2023-02-07T11:21:05;415.48;;;67.80;;
3016;SDS011;1518;52.408;13.060;2023-02-07T11:23:44;277.13;;;44.15;;
3016;SDS011;1518;52.408;13.060;2023-02-07T11:26:15;258.83;;;42.20;;
3016;SDS011;1518;52.408;13.060;2023-02-07T11:28:45;187.55;;;36.80;;
3016;SDS011;1518;52.408;13.060;2023-02-07T11:31:16;167.75;;;33.15;;
3016;SDS011;1518;52.408;13.060;2023-02-07T11:33:48;149.32;;;28.85;;
3016;SDS011;1518;52.408;13.060;2023-02-07T11:36:20;204.35;;;34.13;;
3016;SDS011;1518;52.408;13.060;2023-02-07T11:38:53;173.50;;;32.78;;
3016;SDS011;1518;52.408;13.060;2023-02-07T11:41:25;138.90;;;27.38;;
3016;SDS011;1518;52.408;13.060;2023-02-07T11:43:55;128.45;;;28.40;;
3016;SDS011;1518;52.408;13.060;2023-02-07T11:46:29;135.05;;;29.35;;
3016;SDS011;1518;52.408;13.060;2023-02-07T11:49:00;122.78;;;26.13;;
3016;SDS011;1518;52.408;13.060;2023-02-07T11:51:30;114.03;;;22.27;;
3016;SDS011;1518;52.408;13.060;2023-02-07T11:53:59;87.78;;;21.67;;
3016;SDS011;1518;52.408;13.060;2023-02-07T11:56:31;77.60;;;21.20;;
3016;SDS011;1518;52.408;13.060;2023-02-07T11:59:04;110.35;;;24.35;;
3016;SDS011;1518;52.408;13.060;2023-02-07T12:01:34;95.70;;;21.23;;
3016;SDS011;1518;52.408;13.060;2023-02-07T12:04:07;110.18;;;22.88;;
3016;SDS011;1518;52.408;13.060;2023-02-07T12:06:38;98.82;;;23.63;;
3016;SDS011;1518;52.408;13.060;2023-02-07T12:09:15;86.07;;;21.40;;
3016;SDS011;1518;52.408;13.060;2023-02-07T12:11:51;93.60;;;19.77;;
3016;SDS011;1518;52.408;13.060;2023-02-07T12:14:24;96.60;;;22.40;;
3016;SDS011;1518;52.408;13.060;2023-02-07T12:16:57;87.72;;;19.75;;
3016;SDS011;1518;52.408;13.060;2023-02-07T12:19:27;106.15;;;21.80;;
3016;SDS011;1518;52.408;13.060;2023-02-07T12:22:00;77.35;;;18.63;;
3016;SDS011;1518;52.408;13.060;2023-02-07T12:24:35;94.70;;;19.38;;
3016;SDS011;1518;52.408;13.060;2023-02-07T12:27:12;60.08;;;17.67;;
3016;SDS011;1518;52.408;13.060;2023-02-07T12:29:46;84.55;;;20.60;;
3016;SDS011;1518;52.408;13.060;2023-02-07T12:32:22;75.72;;;19.02;;
3016;SDS011;1518;52.408;13.060;2023-02-07T12:34:59;87.35;;;20.15;;
3016;SDS011;1518;52.408;13.060;2023-02-07T12:37:34;90.35;;;21.02;;
3016;SDS011;1518;52.408;13.060;2023-02-07T12:40:09;74.10;;;17.55;;
3016;SDS011;1518;52.408;13.060;2023-02-07T12:42:44;81.57;;;19.50;;
3016;SDS011;1518;52.408;13.060;2023-02-07T12:45:21;79.97;;;19.73;;
3016;SDS011;1518;52.408;13.060;2023-02-07T12:47:56;60.25;;;18.08;;
3016;SDS011;1518;52.408;13.060;2023-02-07T12:53:32;51.45;;;14.50;;
3016;SDS011;1518;52.408;13.060;2023-02-07T12:56:16;67.25;;;17.25;;
3016;SDS011;1518;52.408;13.060;2023-02-07T12:58:57;70.75;;;17.50;;
3016;SDS011;1518;52.408;13.060;2023-02-07T13:01:34;68.18;;;18.00;;
3016;SDS011;1518;52.408;13.060;2023-02-07T13:04:14;66.55;;;15.85;;
3016;SDS011;1518;52.408;13.060;2023-02-07T13:07:07;60.70;;;16.30;;
3016;SDS011;1518;52.408;13.060;2023-02-07T13:09:47;52.45;;;16.58;;
3016;SDS011;1518;52.408;13.060;2023-02-07T13:12:22;58.95;;;16.13;;
3016;SDS011;1518;52.408;13.060;2023-02-07T13:15:00;56.88;;;16.83;;
3016;SDS011;1518;52.408;13.060;2023-02-07T13:17:39;44.33;;;14.85;;
3016;SDS011;1518;52.408;13.060;2023-02-07T13:20:18;70.65;;;15.80;;
3016;SDS011;1518;52.408;13.060;2023-02-07T13:22:55;71.07;;;17.10;;
3016;SDS011;1518;52.408;13.060;2023-02-07T13:25:26;54.60;;;14.48;;
3016;SDS011;1518;52.408;13.060;2023-02-07T13:27:59;58.55;;;14.77;;
3016;SDS011;1518;52.408;13.060;2023-02-07T13:30:34;48.80;;;15.23;;
3016;SDS011;1518;52.408;13.060;2023-02-07T13:33:03;50.63;;;16.90;;
3016;SDS011;1518;52.408;13.060;2023-02-07T13:35:43;50.67;;;13.65;;
3016;SDS011;1518;52.408;13.060;2023-02-07T13:38:13;63.10;;;15.43;;
3016;SDS011;1518;52.408;13.060;2023-02-07T13:40:49;167.95;;;24.48;;
3016;SDS011;1518;52.408;13.060;2023-02-07T13:43:24;155.35;;;24.23;;
3016;SDS011;1518;52.408;13.060;2023-02-07T13:46:06;80.93;;;15.95;;
3016;SDS011;1518;52.408;13.060;2023-02-07T13:48:52;78.35;;;17.83;;
3016;SDS011;1518;52.408;13.060;2023-02-07T13:51:26;464.25;;;62.22;;
3016;SDS011;1518;52.408;13.060;2023-02-07T13:54:04;567.55;;;84.95;;
3016;SDS011;1518;52.408;13.060;2023-02-07T13:56:54;479.77;;;61.30;;
3016;SDS011;1518;52.408;13.060;2023-02-07T13:59:42;817.55;;;126.68;;
3016;SDS011;1518;52.408;13.060;2023-02-07T14:02:34;582.97;;;95.28;;
3016;SDS011;1518;52.408;13.060;2023-02-07T14:05:08;459.65;;;68.50;;
3016;SDS011;1518;52.408;13.060;2023-02-07T14:07:38;387.40;;;59.78;;
3016;SDS011;1518;52.408;13.060;2023-02-07T14:10:19;270.25;;;41.88;;
3016;SDS011;1518;52.408;13.060;2023-02-07T14:13:20;198.75;;;33.20;;
3016;SDS011;1518;52.408;13.060;2023-02-07T14:16:01;139.90;;;27.38;;
3016;SDS011;1518;52.408;13.060;2023-02-07T14:18:33;175.60;;;26.92;;
3016;SDS011;1518;52.408;13.060;2023-02-07T14:21:23;145.65;;;25.23;;
3016;SDS011;1518;52.408;13.060;2023-02-07T14:24:01;122.32;;;24.10;;
3016;SDS011;1518;52.408;13.060;2023-02-07T14:26:56;135.63;;;22.92;;
3016;SDS011;1518;52.408;13.060;2023-02-07T14:33:08;87.95;;;20.33;;
3016;SDS011;1518;52.408;13.060;2023-02-07T14:35:44;83.80;;;16.83;;
3016;SDS011;1518;52.408;13.060;2023-02-07T14:38:35;106.13;;;20.73;;
3016;SDS011;1518;52.408;13.060;2023-02-07T14:41:05;82.32;;;18.65;;
3016;SDS011;1518;52.408;13.060;2023-02-07T14:43:42;78.28;;;17.38;;
3016;SDS011;1518;52.408;13.060;2023-02-07T14:46:33;86.32;;;17.80;;
3016;SDS011;1518;52.408;13.060;2023-02-07T14:49:05;69.57;;;18.13;;
3016;SDS011;1518;52.408;13.060;2023-02-07T14:51:41;68.15;;;17.35;;
3016;SDS011;1518;52.408;13.060;2023-02-07T14:54:15;71.32;;;16.92;;
3016;SDS011;1518;52.408;13.060;2023-02-07T14:56:51;82.30;;;16.30;;
3016;SDS011;1518;52.408;13.060;2023-02-07T14:59:27;79.25;;;16.17;;
3016;SDS011;1518;52.408;13.060;2023-02-07T15:04:59;58.03;;;14.82;;
3016;SDS011;1518;52.408;13.060;2023-02-07T15:07:42;55.70;;;16.42;;
3016;SDS011;1518;52.408;13.060;2023-02-07T15:10:13;70.78;;;16.15;;
3016;SDS011;1518;52.408;13.060;2023-02-07T15:12:46;62.90;;;15.52;;
3016;SDS011;1518;52.408;13.060;2023-02-07T15:15:18;72.25;;;16.60;;
3016;SDS011;1518;52.408;13.060;2023-02-07T15:17:50;50.83;;;12.98;;
3016;SDS011;1518;52.408;13.060;2023-02-07T15:20:22;54.22;;;14.43;;
3016;SDS011;1518;52.408;13.060;2023-02-07T15:22:54;53.17;;;13.70;;
3016;SDS011;1518;52.408;13.060;2023-02-07T15:25:23;45.45;;;13.38;;
3016;SDS011;1518;52.408;13.060;2023-02-07T15:28:00;51.45;;;13.65;;
3016;SDS011;1518;52.408;13.060;2023-02-07T15:30:32;50.53;;;12.30;;
3016;SDS011;1518;52.408;13.060;2023-02-07T15:33:00;51.17;;;11.82;;
3016;SDS011;1518;52.408;13.060;2023-02-07T15:35:41;40.35;;;12.73;;
3016;SDS011;1518;52.408;13.060;2023-02-07T15:38:27;41.65;;;12.52;;
3016;SDS011;1518;52.408;13.060;2023-02-07T15:41:15;43.30;;;12.68;;
3016;SDS011;1518;52.408;13.060;2023-02-07T15:44:04;50.25;;;13.60;;
3016;SDS011;1518;52.408;13.060;2023-02-07T15:46:54;35.22;;;10.57;;
3016;SDS011;1518;52.408;13.060;2023-02-07T15:49:43;38.92;;;11.55;;
3016;SDS011;1518;52.408;13.060;2023-02-07T15:52:34;43.45;;;12.30;;
3016;SDS011;1518;52.408;13.060;2023-02-07T15:55:25;42.25;;;12.30;;
3016;SDS011;1518;52.408;13.060;2023-02-07T15:58:20;38.80;;;13.07;;
3016;SDS011;1518;52.408;13.060;2023-02-07T16:01:13;36.83;;;11.20;;
3016;SDS011;1518;52.408;13.060;2023-02-07T16:04:08;31.80;;;10.82;;
3016;SDS011;1518;52.408;13.060;2023-02-07T16:06:58;33.03;;;10.93;;
3016;SDS011;1518;52.408;13.060;2023-02-07T16:09:49;36.60;;;11.13;;
3016;SDS011;1518;52.408;13.060;2023-02-07T16:12:42;37.05;;;10.57;;
3016;SDS011;1518;52.408;13.060;2023-02-07T16:15:36;33.92;;;9.45;;
3016;SDS011;1518;52.408;13.060;2023-02-07T16:18:33;36.22;;;10.73;;
3016;SDS011;1518;52.408;13.060;2023-02-07T16:21:23;27.48;;;9.20;;
3016;SDS011;1518;52.408;13.060;2023-02-07T16:24:14;42.13;;;12.65;;
3016;SDS011;1518;52.408;13.060;2023-02-07T16:27:05;25.38;;;10.30;;
3016;SDS011;1518;52.408;13.060;2023-02-07T16:29:54;26.70;;;9.23;;